Terminal Aerodrome Forecast
Issued by NWS

Current Version | Previous Version | Graphics & Text | Print | Product List | Glossary On
Versions: 1 2 3 4 5 6 7 8 9 10 11 12 13 14 15 16 17 18 19 20 21 22 23 24 25 26 27 28 29 30 31 32 33 34 35 36 37 38 39 40 41 42 43
681
FTUS41 KRNK 211107 AAD
TAFLWB
TAF AMD
KLWB 211107Z 2111/2206 00000KT 1/4SM FG OVC001
      TEMPO 2111/2113 1SM BR BKN005
     FM211330 VRB03KT P6SM SCT050
     FM220000 00000KT P6SM SKC=

USA.gov is the U.S. government's official web portal to all federal, state and local government web resources and services.